createdAt,value
2018-12-17T00:00:14.405Z,3.50
2018-12-17T00:02:41.565Z,3.50
2018-12-17T00:05:08.725Z,3.60
2018-12-17T00:07:35.885Z,3.60
2018-12-17T00:10:05.927Z,3.60
2018-12-17T00:12:33.085Z,3.50
2018-12-17T00:15:00.205Z,3.60
2018-12-17T00:17:27.406Z,3.60
2018-12-17T00:19:54.505Z,3.50
2018-12-17T00:22:21.625Z,3.50
2018-12-17T00:24:55.785Z,3.60
2018-12-17T00:27:22.945Z,3.50
2018-12-17T00:29:50.086Z,3.60
2018-12-17T00:32:17.269Z,3.50
2018-12-17T00:34:44.470Z,3.50
2018-12-17T00:37:11.667Z,3.50
2018-12-17T00:39:45.745Z,3.50
2018-12-17T00:42:12.946Z,3.50
2018-12-17T00:44:40.165Z,3.50
2018-12-17T00:47:07.449Z,3.50
2018-12-17T00:49:34.546Z,3.60
2018-12-17T00:52:01.725Z,3.60
2018-12-17T00:54:28.786Z,3.50
2018-12-17T00:57:02.866Z,3.50
2018-12-17T00:59:29.986Z,3.50
2018-12-17T01:01:57.606Z,3.50
2018-12-17T01:04:24.745Z,3.60
2018-12-17T01:06:52.366Z,3.50
2018-12-17T01:09:19.526Z,3.60
2018-12-17T01:11:46.666Z,3.60
2018-12-17T01:14:28.786Z,3.50
2018-12-17T01:17:03.126Z,3.50
2018-12-17T01:19:30.306Z,3.50
2018-12-17T01:21:57.967Z,3.50
2018-12-17T01:24:25.086Z,3.50
2018-12-17T01:26:52.265Z,3.40
2018-12-17T01:29:19.446Z,3.50
2018-12-17T01:31:46.628Z,3.60
2018-12-17T01:34:13.786Z,3.50
2018-12-17T01:36:40.866Z,3.50
2018-12-17T01:39:08.087Z,3.50
2018-12-17T01:41:35.287Z,3.50
2018-12-17T01:44:09.325Z,3.50
2018-12-17T01:46:36.387Z,3.50
2018-12-17T01:49:03.625Z,3.50
2018-12-17T01:51:30.766Z,3.50
2018-12-17T01:53:57.905Z,3.60
2018-12-17T01:56:25.047Z,3.50
2018-12-17T01:58:52.246Z,3.50
2018-12-17T02:01:19.406Z,3.50
2018-12-17T02:03:46.545Z,3.50
2018-12-17T02:06:20.625Z,3.50
2018-12-17T02:08:47.846Z,3.50
2018-12-17T02:11:14.945Z,3.50
2018-12-17T02:13:42.546Z,3.60
2018-12-17T02:16:09.706Z,3.60
2018-12-17T02:18:36.866Z,3.50
2018-12-17T02:21:04.046Z,3.60
2018-12-17T02:23:31.246Z,3.60
2018-12-17T02:25:58.274Z,3.60
2018-12-17T02:28:25.685Z,3.60
2018-12-17T02:30:52.829Z,3.70
2018-12-17T02:33:19.887Z,3.60
2018-12-17T02:35:47.047Z,3.60
2018-12-17T02:38:15.045Z,3.60
2018-12-17T02:40:49.087Z,3.70
2018-12-17T02:43:16.225Z,3.70
2018-12-17T02:45:50.186Z,3.70
2018-12-17T02:48:17.286Z,3.70
2018-12-17T02:50:44.444Z,3.70
2018-12-17T02:53:18.446Z,3.70
2018-12-17T02:55:45.646Z,3.90
2018-12-17T02:58:12.765Z,3.90
2018-12-17T03:00:39.925Z,4.00
2018-12-17T03:03:07.045Z,3.90
2018-12-17T03:05:34.204Z,3.90
2018-12-17T03:08:01.346Z,3.80
2018-12-17T03:10:28.505Z,3.80
2018-12-17T03:12:55.565Z,3.80
2018-12-17T03:15:22.665Z,3.90
2018-12-17T03:17:49.826Z,3.80
2018-12-17T03:20:16.928Z,3.80
2018-12-17T03:22:44.048Z,3.90
2018-12-17T03:25:11.466Z,3.80
2018-12-17T03:27:38.669Z,3.80
2018-12-17T03:30:06.706Z,3.90
2018-12-17T03:32:33.827Z,3.90
2018-12-17T03:35:00.945Z,3.80
2018-12-17T03:37:28.207Z,3.80
2018-12-17T03:39:55.769Z,3.90
2018-12-17T03:42:22.926Z,3.90
2018-12-17T03:44:50.066Z,3.70
2018-12-17T03:47:17.206Z,3.80
2018-12-17T03:49:44.825Z,3.70
2018-12-17T03:52:12.007Z,3.80
2018-12-17T03:54:39.149Z,3.80
2018-12-17T03:57:06.394Z,3.80
2018-12-17T03:59:33.449Z,3.80
2018-12-17T04:02:00.605Z,3.70
2018-12-17T04:04:27.689Z,3.80
2018-12-17T04:06:54.785Z,3.70
2018-12-17T04:09:21.866Z,3.80
2018-12-17T04:11:49.065Z,3.80
2018-12-17T04:14:16.246Z,3.60
2018-12-17T04:16:43.324Z,3.70
2018-12-17T04:19:10.525Z,3.70
2018-12-17T04:21:44.625Z,3.70
2018-12-17T04:24:11.785Z,3.70
2018-12-17T04:26:38.925Z,3.70
2018-12-17T04:29:07.057Z,3.70
2018-12-17T04:31:34.781Z,3.60
2018-12-17T04:34:01.925Z,3.50
2018-12-17T04:36:29.107Z,3.60
2018-12-17T04:38:56.244Z,3.60
2018-12-17T04:41:23.405Z,3.70
2018-12-17T04:43:50.566Z,3.70
2018-12-17T04:46:17.707Z,3.70
2018-12-17T04:48:44.872Z,3.70
2018-12-17T04:51:12.426Z,3.70
2018-12-17T04:53:39.647Z,3.80
2018-12-17T04:56:06.850Z,3.70
2018-12-17T04:58:34.086Z,3.80
2018-12-17T05:01:01.166Z,3.70
2018-12-17T05:03:28.886Z,3.80
2018-12-17T05:05:55.985Z,3.70
2018-12-17T05:08:23.125Z,3.80
2018-12-17T05:10:50.245Z,3.80
2018-12-17T05:13:17.425Z,3.80
2018-12-17T05:15:44.524Z,3.70
2018-12-17T05:18:11.746Z,3.60
2018-12-17T05:20:38.865Z,3.70
2018-12-17T05:23:06.046Z,3.70
2018-12-17T05:25:33.225Z,3.70
2018-12-17T05:28:00.385Z,3.80
2018-12-17T05:30:27.443Z,3.90
2018-12-17T05:33:02.665Z,3.80
2018-12-17T05:35:29.787Z,3.70
2018-12-17T05:37:57.646Z,3.90
2018-12-17T05:40:24.823Z,3.90
2018-12-17T05:42:51.964Z,3.70
2018-12-17T05:45:19.716Z,3.90
2018-12-17T05:47:46.868Z,3.90
2018-12-17T05:50:14.113Z,3.80
2018-12-17T05:52:48.208Z,3.70
2018-12-17T05:55:15.404Z,3.80
2018-12-17T05:57:42.484Z,3.60
2018-12-17T06:00:09.644Z,3.70
2018-12-17T06:02:36.784Z,3.70
2018-12-17T06:05:04.666Z,3.70
2018-12-17T06:07:31.885Z,3.60
2018-12-17T06:09:59.065Z,3.70
2018-12-17T06:12:26.165Z,3.80
2018-12-17T06:14:53.345Z,3.70
2018-12-17T06:17:20.505Z,3.70
2018-12-17T06:19:47.925Z,3.80
2018-12-17T06:22:15.165Z,3.70
2018-12-17T06:24:42.744Z,3.80
2018-12-17T06:27:09.738Z,3.70
2018-12-17T06:29:36.964Z,3.80
2018-12-17T06:32:04.105Z,3.70
2018-12-17T06:34:31.286Z,3.70
2018-12-17T06:36:58.425Z,3.70
2018-12-17T06:39:25.504Z,3.70
2018-12-17T06:41:52.664Z,3.70
2018-12-17T06:44:19.845Z,3.60
2018-12-17T06:46:46.945Z,3.70
2018-12-17T06:49:14.066Z,3.70
2018-12-17T06:51:41.465Z,3.80
2018-12-17T06:54:08.965Z,3.90
2018-12-17T06:56:36.085Z,3.90
2018-12-17T06:59:03.265Z,3.80
2018-12-17T07:01:30.585Z,3.90
2018-12-17T07:03:57.765Z,3.90
2018-12-17T07:06:24.910Z,3.90
2018-12-17T07:08:52.007Z,3.90
2018-12-17T07:11:19.125Z,3.90
2018-12-17T07:13:46.158Z,3.90
2018-12-17T07:16:13.245Z,3.80
2018-12-17T07:18:40.467Z,3.90
2018-12-17T07:21:07.644Z,3.90
2018-12-17T07:23:34.824Z,3.90
2018-12-17T07:26:01.965Z,3.80
2018-12-17T07:28:29.125Z,3.90
2018-12-17T07:30:56.285Z,3.90
2018-12-17T07:33:23.414Z,3.80
2018-12-17T07:35:50.625Z,4.00
2018-12-17T07:38:17.745Z,4.00
2018-12-17T07:40:44.926Z,4.00
2018-12-17T07:43:12.806Z,4.00
2018-12-17T07:45:39.924Z,4.10
2018-12-17T07:48:07.070Z,4.20
2018-12-17T07:50:34.306Z,4.10
2018-12-17T07:53:01.406Z,4.20
2018-12-17T07:55:28.568Z,4.30
2018-12-17T07:57:55.744Z,4.30
2018-12-17T08:00:22.925Z,4.40
2018-12-17T08:02:50.545Z,4.40
2018-12-17T08:05:17.665Z,4.30
2018-12-17T08:07:44.788Z,4.30
2018-12-17T08:10:11.866Z,4.40
2018-12-17T08:12:39.386Z,4.40
2018-12-17T08:15:06.714Z,4.40
2018-12-17T08:17:33.864Z,4.40
2018-12-17T08:20:01.191Z,4.70
2018-12-17T08:22:28.565Z,4.50
2018-12-17T08:24:55.644Z,4.70
2018-12-17T08:27:22.806Z,4.50
2018-12-17T08:29:49.947Z,4.70
2018-12-17T08:32:17.107Z,4.50
2018-12-17T08:34:44.306Z,4.50
2018-12-17T08:37:11.425Z,4.50
2018-12-17T08:39:38.506Z,4.60
2018-12-17T08:42:05.642Z,4.60
2018-12-17T08:44:39.727Z,4.70
2018-12-17T08:47:06.925Z,4.80
2018-12-17T08:49:34.048Z,4.80
2018-12-17T08:52:01.166Z,4.90
2018-12-17T08:54:28.488Z,5.10
2018-12-17T08:56:55.666Z,5.00
2018-12-17T08:59:22.825Z,4.80
2018-12-17T09:01:49.966Z,4.90
2018-12-17T09:04:17.085Z,4.90
2018-12-17T09:06:44.185Z,5.00
2018-12-17T09:09:11.346Z,5.00
2018-12-17T09:11:38.586Z,5.10
2018-12-17T09:14:05.767Z,5.10
2018-12-17T09:16:32.887Z,5.10
2018-12-17T09:18:59.986Z,5.30
2018-12-17T09:21:27.108Z,5.30
2018-12-17T09:23:54.226Z,5.40
2018-12-17T09:26:21.426Z,5.30
2018-12-17T09:28:48.646Z,5.30
2018-12-17T09:31:15.766Z,5.20
2018-12-17T09:33:42.906Z,5.20
2018-12-17T09:36:10.066Z,5.30
2018-12-17T09:38:37.188Z,5.20
2018-12-17T09:41:04.366Z,5.30
2018-12-17T09:43:31.546Z,5.40
2018-12-17T09:45:58.726Z,5.50
2018-12-17T09:48:25.957Z,5.60
2018-12-17T09:50:53.107Z,5.80
2018-12-17T09:53:20.366Z,5.80
2018-12-17T09:55:47.529Z,5.90
2018-12-17T09:58:14.587Z,5.80
2018-12-17T10:00:41.766Z,5.70
2018-12-17T10:03:08.928Z,5.60
2018-12-17T10:05:36.086Z,5.80
2018-12-17T10:08:03.267Z,5.70
2018-12-17T10:10:30.427Z,5.90
2018-12-17T10:12:57.566Z,5.90
2018-12-17T10:15:24.726Z,6.00
2018-12-17T10:17:51.885Z,6.00
2018-12-17T10:20:19.086Z,6.10
2018-12-17T10:22:46.226Z,6.20
2018-12-17T10:25:13.424Z,6.10
2018-12-17T10:27:40.585Z,6.20
2018-12-17T10:30:08.046Z,6.20
2018-12-17T10:32:35.187Z,6.20
2018-12-17T10:35:02.486Z,6.40
2018-12-17T10:37:29.646Z,6.40
2018-12-17T10:39:56.827Z,6.50
2018-12-17T10:42:24.466Z,6.40
2018-12-17T10:44:51.526Z,6.60
2018-12-17T10:47:18.649Z,6.60
2018-12-17T10:49:45.886Z,6.70
2018-12-17T10:52:12.965Z,6.90
2018-12-17T10:54:40.184Z,7.00
2018-12-17T10:57:07.228Z,7.10
2018-12-17T10:59:34.386Z,7.20
2018-12-17T11:02:04.646Z,7.00
2018-12-17T11:04:34.761Z,7.10
2018-12-17T11:07:01.968Z,7.20
2018-12-17T11:09:29.888Z,7.40
2018-12-17T11:11:57.108Z,7.30
2018-12-17T11:14:24.265Z,7.40
2018-12-17T11:16:51.482Z,7.40
2018-12-17T11:19:18.987Z,7.50
2018-12-17T11:21:46.173Z,7.40
2018-12-17T11:24:13.287Z,7.40
2018-12-17T11:26:40.484Z,7.10
2018-12-17T11:29:14.525Z,7.10
2018-12-17T11:31:41.685Z,7.10
2018-12-17T11:34:08.845Z,6.80
2018-12-17T11:36:35.965Z,6.90
2018-12-17T11:39:06.984Z,6.70
2018-12-17T11:41:34.545Z,6.80
2018-12-17T11:44:01.774Z,6.80
2018-12-17T11:46:28.966Z,6.70
2018-12-17T11:48:56.304Z,6.50
2018-12-17T11:51:23.299Z,6.40
2018-12-17T11:53:57.618Z,6.60
2018-12-17T11:59:14.377Z,6.60
2018-12-17T12:01:41.476Z,6.50
2018-12-17T12:04:08.569Z,6.50
2018-12-17T12:06:35.626Z,6.40
2018-12-17T12:09:04.038Z,6.40
2018-12-17T12:11:31.195Z,6.50
2018-12-17T12:13:58.183Z,6.50
2018-12-17T12:16:25.420Z,6.50
2018-12-17T12:18:52.438Z,6.60
2018-12-17T12:21:19.559Z,6.70
2018-12-17T12:23:46.578Z,6.60
2018-12-17T12:26:13.758Z,6.70
2018-12-17T12:28:40.959Z,6.60
2018-12-17T12:31:08.117Z,6.50
2018-12-17T12:33:35.411Z,6.50
2018-12-17T12:36:02.522Z,6.50
2018-12-17T12:38:29.610Z,6.30
2018-12-17T12:40:56.705Z,6.20
2018-12-17T12:43:23.863Z,6.20
2018-12-17T12:45:57.803Z,6.10
2018-12-17T12:48:25.003Z,6.10
2018-12-17T12:50:52.323Z,6.00
2018-12-17T12:53:19.350Z,6.00
2018-12-17T12:55:46.460Z,5.90
2018-12-17T12:58:13.660Z,6.00
2018-12-17T13:00:40.940Z,6.00
2018-12-17T13:03:08.275Z,5.90
2018-12-17T13:05:35.359Z,6.00
2018-12-17T13:08:02.701Z,5.90
2018-12-17T13:10:29.819Z,5.80
2018-12-17T13:12:57.021Z,6.00
2018-12-17T13:15:24.087Z,6.00
2018-12-17T13:17:51.318Z,6.00
2018-12-17T13:20:18.157Z,6.00
2018-12-17T13:22:45.343Z,6.00
2018-12-17T13:25:14.403Z,6.00
2018-12-17T13:27:41.542Z,6.10
2018-12-17T13:30:08.824Z,6.20
2018-12-17T13:32:36.017Z,6.20
2018-12-17T13:35:04.487Z,6.20
2018-12-17T13:37:31.582Z,6.20
2018-12-17T13:39:58.663Z,6.10
2018-12-17T13:42:32.744Z,6.30
2018-12-17T13:45:00.283Z,6.20
2018-12-17T13:47:27.443Z,6.40
2018-12-17T13:49:54.645Z,6.30
2018-12-17T13:52:28.004Z,6.30
2018-12-17T13:54:55.138Z,6.40
2018-12-17T13:57:22.262Z,6.40
2018-12-17T13:59:49.365Z,6.40
2018-12-17T14:02:16.464Z,6.20
2018-12-17T14:04:43.632Z,6.20
2018-12-17T14:07:10.795Z,6.30
2018-12-17T14:09:40.035Z,6.30
2018-12-17T14:12:07.256Z,6.40
2018-12-17T14:14:34.416Z,6.20
2018-12-17T14:17:07.401Z,6.00
2018-12-17T14:19:34.475Z,6.00
2018-12-17T14:22:03.677Z,5.90
2018-12-17T14:24:31.097Z,6.10
2018-12-17T14:26:58.202Z,6.10
2018-12-17T14:29:25.353Z,6.00
2018-12-17T14:31:52.796Z,6.00
2018-12-17T14:34:19.889Z,6.10
2018-12-17T14:36:47.383Z,6.00
2018-12-17T14:39:14.523Z,6.00
2018-12-17T14:41:41.593Z,5.90
2018-12-17T14:44:14.816Z,6.00
2018-12-17T14:46:48.055Z,5.80
2018-12-17T14:49:15.196Z,5.90
2018-12-17T14:51:42.371Z,5.80
2018-12-17T14:54:09.479Z,5.80
2018-12-17T14:56:36.645Z,5.80
2018-12-17T14:59:03.767Z,5.80
2018-12-17T15:01:35.810Z,5.80
2018-12-17T15:03:59.977Z,5.80
2018-12-17T15:06:27.090Z,5.80
2018-12-17T15:08:54.157Z,5.80
2018-12-17T15:11:21.270Z,5.90
2018-12-17T15:13:48.395Z,5.80
2018-12-17T15:16:15.502Z,5.80
2018-12-17T15:18:42.572Z,5.80
2018-12-17T15:21:09.673Z,5.80
2018-12-17T15:23:36.877Z,5.70
2018-12-17T15:26:04.175Z,5.80
2018-12-17T15:28:31.353Z,5.80
2018-12-17T15:30:58.568Z,5.80
2018-12-17T15:33:26.013Z,5.70
2018-12-17T15:35:53.062Z,5.70
2018-12-17T15:38:20.202Z,5.70
2018-12-17T15:40:47.322Z,5.70
2018-12-17T15:43:14.462Z,5.70
2018-12-17T15:45:41.803Z,5.70
2018-12-17T15:48:08.972Z,5.70
2018-12-17T15:50:36.190Z,5.70
2018-12-17T15:53:03.290Z,5.70
2018-12-17T15:55:30.416Z,5.70
2018-12-17T15:57:57.378Z,5.70
2018-12-17T16:00:24.582Z,5.70
2018-12-17T16:02:51.738Z,5.60
2018-12-17T16:05:18.873Z,5.70
2018-12-17T16:07:45.814Z,5.60
2018-12-17T16:10:12.796Z,5.60
2018-12-17T16:12:39.867Z,5.60
2018-12-17T16:15:06.990Z,5.60
2018-12-17T16:17:34.136Z,5.70
2018-12-17T16:20:01.198Z,5.80
2018-12-17T16:22:29.083Z,5.80
2018-12-17T16:24:56.261Z,5.90
2018-12-17T16:27:23.401Z,5.80
2018-12-17T16:29:50.540Z,5.80
2018-12-17T16:32:17.655Z,5.70
2018-12-17T16:34:44.808Z,5.70
2018-12-17T16:37:12.059Z,5.70
2018-12-17T16:39:39.541Z,5.80
2018-12-17T16:42:06.698Z,5.80
2018-12-17T16:44:34.117Z,5.80
2018-12-17T16:47:02.079Z,5.90
2018-12-17T16:49:29.172Z,5.80
2018-12-17T16:51:56.372Z,5.70
2018-12-17T16:54:23.451Z,5.80
2018-12-17T16:56:50.410Z,5.70
2018-12-17T16:59:17.533Z,5.70
2018-12-17T17:01:44.612Z,5.70
2018-12-17T17:04:11.751Z,5.70
2018-12-17T17:06:38.911Z,5.70
2018-12-17T17:09:06.773Z,5.70
2018-12-17T17:11:33.933Z,5.90
2018-12-17T17:14:01.152Z,5.70
2018-12-17T17:16:28.231Z,5.70
2018-12-17T17:18:55.353Z,5.70
2018-12-17T17:21:22.493Z,5.70
2018-12-17T17:23:49.694Z,5.70
2018-12-17T17:26:16.791Z,5.60
2018-12-17T17:28:44.752Z,5.60
2018-12-17T17:31:11.853Z,5.60
2018-12-17T17:33:38.993Z,5.60
2018-12-17T17:36:06.111Z,5.60
2018-12-17T17:38:33.033Z,5.50
2018-12-17T17:41:00.213Z,5.50
2018-12-17T17:43:27.373Z,5.50
2018-12-17T17:45:54.513Z,5.40
2018-12-17T17:48:21.913Z,5.40
2018-12-17T17:50:48.952Z,5.40
2018-12-17T17:53:16.193Z,5.40
2018-12-17T17:55:43.333Z,5.40
2018-12-17T17:58:10.471Z,5.30
2018-12-17T18:00:37.573Z,5.30
2018-12-17T18:03:04.853Z,5.30
2018-12-17T18:05:31.833Z,5.30
2018-12-17T18:07:59.233Z,5.30
2018-12-17T18:10:26.313Z,5.20
2018-12-17T18:12:53.473Z,5.20
2018-12-17T18:15:20.731Z,5.20
2018-12-17T18:17:47.812Z,5.20
2018-12-17T18:20:14.932Z,5.20
2018-12-17T18:22:42.093Z,5.20
2018-12-17T18:25:09.275Z,5.20
2018-12-17T18:27:36.611Z,5.10
2018-12-17T18:30:05.555Z,5.10
2018-12-17T18:32:32.504Z,5.10
2018-12-17T18:34:59.613Z,5.10
2018-12-17T18:37:33.671Z,5.10
2018-12-17T18:40:00.810Z,5.10
2018-12-17T18:42:27.990Z,5.10
2018-12-17T18:44:55.212Z,5.10
2018-12-17T18:47:25.709Z,5.30
2018-12-17T18:49:51.496Z,5.30
2018-12-17T18:52:18.671Z,5.30
2018-12-17T18:54:45.789Z,5.40
2018-12-17T18:57:13.511Z,5.40
2018-12-17T18:59:40.799Z,5.30
2018-12-17T19:02:07.946Z,5.30
2018-12-17T19:04:34.985Z,5.30
2018-12-17T19:07:03.709Z,5.30
2018-12-17T19:09:31.105Z,5.20
2018-12-17T19:11:58.283Z,5.20
2018-12-17T19:14:25.567Z,5.20
2018-12-17T19:16:52.649Z,5.20
2018-12-17T19:19:19.803Z,5.20
2018-12-17T19:21:46.941Z,5.00
2018-12-17T19:24:14.562Z,5.00
2018-12-17T19:26:41.782Z,5.00
2018-12-17T19:29:09.041Z,5.10
2018-12-17T19:31:36.178Z,5.10
2018-12-17T19:34:03.421Z,5.00
2018-12-17T19:36:30.538Z,5.10
2018-12-17T19:38:57.759Z,5.10
2018-12-17T19:41:24.945Z,5.10
2018-12-17T19:43:52.098Z,5.00
2018-12-17T19:46:19.517Z,5.10
2018-12-17T19:48:46.657Z,5.10
2018-12-17T19:51:13.818Z,5.10
2018-12-17T19:53:41.037Z,5.10
2018-12-17T19:56:08.177Z,5.10
2018-12-17T19:58:35.437Z,5.10
2018-12-17T20:01:02.499Z,5.20
2018-12-17T20:03:29.698Z,5.20
2018-12-17T20:05:56.878Z,5.10
2018-12-17T20:08:24.097Z,5.10
2018-12-17T20:10:51.177Z,5.20
2018-12-17T20:13:18.316Z,5.20
2018-12-17T20:15:45.517Z,5.10
2018-12-17T20:18:12.700Z,5.10
2018-12-17T20:20:39.897Z,5.20
2018-12-17T20:23:07.021Z,5.20
2018-12-17T20:25:34.356Z,5.30
2018-12-17T20:28:01.602Z,5.30
2018-12-17T20:30:28.703Z,5.30
2018-12-17T20:32:55.883Z,5.30
2018-12-17T20:35:23.144Z,5.50
2018-12-17T20:37:50.264Z,5.40
2018-12-17T20:40:17.343Z,5.40
2018-12-17T20:42:44.543Z,5.50
2018-12-17T20:45:11.826Z,5.60
2018-12-17T20:47:39.029Z,5.60
2018-12-17T20:50:07.323Z,5.50
2018-12-17T20:52:34.624Z,5.50
2018-12-17T20:55:01.843Z,5.50
2018-12-17T20:57:29.303Z,5.60
2018-12-17T20:59:56.524Z,5.50
2018-12-17T21:02:23.683Z,5.60
2018-12-17T21:04:50.903Z,5.70
2018-12-17T21:07:18.083Z,5.70
2018-12-17T21:09:45.303Z,5.60
2018-12-17T21:12:19.823Z,5.50
2018-12-17T21:14:47.002Z,5.60
2018-12-17T21:17:14.143Z,5.60
2018-12-17T21:19:41.643Z,5.50
2018-12-17T21:22:09.283Z,5.50
2018-12-17T21:24:36.444Z,5.50
2018-12-17T21:27:04.803Z,5.50
2018-12-17T21:29:32.423Z,5.40
2018-12-17T21:31:59.632Z,5.40
2018-12-17T21:34:33.951Z,5.50
2018-12-17T21:37:01.530Z,5.40
2018-12-17T21:39:28.571Z,5.40
2018-12-17T21:41:55.651Z,5.40
2018-12-17T21:44:22.734Z,5.40
2018-12-17T21:46:49.811Z,5.40
2018-12-17T21:49:16.911Z,5.50
2018-12-17T21:51:44.092Z,5.50
2018-12-17T21:54:11.295Z,5.50
2018-12-17T21:56:38.511Z,5.50
2018-12-17T21:59:06.085Z,5.50
2018-12-17T22:01:33.450Z,5.60
2018-12-17T22:04:00.611Z,5.50
2018-12-17T22:06:28.071Z,5.60
2018-12-17T22:08:55.351Z,5.60
2018-12-17T22:11:22.511Z,5.60
2018-12-17T22:13:49.591Z,5.60
2018-12-17T22:16:16.730Z,5.70
2018-12-17T22:18:43.910Z,5.60
2018-12-17T22:21:11.310Z,5.60
2018-12-17T22:23:38.472Z,5.60
2018-12-17T22:26:05.532Z,5.60
2018-12-17T22:28:32.671Z,5.60
2018-12-17T22:30:59.851Z,5.70
2018-12-17T22:33:26.991Z,5.70
2018-12-17T22:35:54.171Z,5.70
2018-12-17T22:38:21.331Z,5.70
2018-12-17T22:40:48.571Z,5.70
2018-12-17T22:43:15.750Z,5.70
2018-12-17T22:45:42.851Z,5.80
2018-12-17T22:48:09.983Z,5.70
2018-12-17T22:50:37.150Z,5.70
2018-12-17T22:53:04.234Z,5.80
2018-12-17T22:55:31.450Z,5.80
2018-12-17T22:57:58.631Z,5.80
2018-12-17T23:00:26.150Z,5.80
2018-12-17T23:03:00.789Z,5.80
2018-12-17T23:05:27.929Z,5.70
2018-12-17T23:07:55.190Z,5.80
2018-12-17T23:10:44.049Z,5.80
2018-12-17T23:13:29.430Z,5.90
2018-12-17T23:16:14.809Z,5.80
2018-12-17T23:18:41.368Z,5.80
2018-12-17T23:21:08.709Z,5.90
2018-12-17T23:23:35.910Z,5.80
2018-12-17T23:26:03.089Z,5.80
2018-12-17T23:28:30.269Z,5.80
2018-12-17T23:30:57.470Z,5.70
2018-12-17T23:33:24.589Z,5.80
2018-12-17T23:35:51.890Z,5.70
2018-12-17T23:38:19.089Z,5.60
2018-12-17T23:40:46.271Z,5.70
2018-12-17T23:43:13.289Z,5.80
2018-12-17T23:45:40.464Z,5.70
2018-12-17T23:48:07.649Z,5.70
2018-12-17T23:50:35.329Z,5.70
2018-12-17T23:53:02.549Z,5.70
2018-12-17T23:55:29.768Z,5.80
2018-12-17T23:57:56.929Z,5.80
